createdAt,value
2023-03-29T00:00:32.879Z,100080.47
2023-03-29T00:03:02.558Z,100073.94
2023-03-29T00:05:34.002Z,100076.44
2023-03-29T00:08:04.021Z,100076.16
2023-03-29T00:10:33.529Z,100071.88
2023-03-29T00:13:01.445Z,100070.91
2023-03-29T00:15:29.141Z,100072.94
2023-03-29T00:17:57.298Z,100063.81
2023-03-29T00:20:25.037Z,100070.44
2023-03-29T00:22:54.082Z,100074.69
2023-03-29T00:25:22.854Z,100063.81
2023-03-29T00:27:50.615Z,100064.38
2023-03-29T00:30:18.446Z,100068.53
2023-03-29T00:32:46.801Z,100060.25
2023-03-29T00:35:15.072Z,100056.91
2023-03-29T00:37:42.748Z,100056.78
2023-03-29T00:40:15.440Z,100058.44
2023-03-29T00:42:45.685Z,100057.59
2023-03-29T00:45:21.206Z,100046.72
2023-03-29T00:47:51.393Z,100051.31
2023-03-29T00:50:25.531Z,100045.66
2023-03-29T00:52:57.707Z,100037.09
2023-03-29T00:55:30.595Z,100043.84
2023-03-29T01:00:33.978Z,100041.22
2023-03-29T01:03:07.218Z,100034.19
2023-03-29T01:05:38.143Z,100034.63
2023-03-29T01:08:11.085Z,100031.03
2023-03-29T01:10:42.564Z,100024.50
2023-03-29T01:13:14.451Z,100021.31
2023-03-29T01:15:46.051Z,100019.09
2023-03-29T01:18:14.001Z,100015.94
2023-03-29T01:21:02.918Z,100022.03
2023-03-29T01:23:47.556Z,100011.75
2023-03-29T01:26:27.102Z,100008.22
2023-03-29T01:29:01.912Z,100010.81
2023-03-29T01:31:32.879Z,100008.75
2023-03-29T01:34:06.895Z,100002.91
2023-03-29T01:36:40.561Z,100010.34
2023-03-29T01:39:08.760Z,100005.13
2023-03-29T01:41:45.111Z,100006.34
2023-03-29T01:44:19.594Z,100004.28
2023-03-29T01:46:48.913Z,100013.16
2023-03-29T01:49:25.352Z,100003.91
2023-03-29T01:51:58.217Z,99995.44
2023-03-29T01:54:31.515Z,99990.44
2023-03-29T01:57:01.098Z,99988.91
2023-03-29T01:59:34.723Z,99982.09
2023-03-29T02:02:06.613Z,99987.50
2023-03-29T02:04:38.433Z,99982.13
2023-03-29T02:07:09.800Z,99981.91
2023-03-29T02:09:39.819Z,99970.94
2023-03-29T02:12:09.949Z,99956.88
2023-03-29T02:14:39.573Z,99958.50
2023-03-29T02:17:18.191Z,99958.44
2023-03-29T02:19:50.138Z,99955.84
2023-03-29T02:22:24.192Z,99950.94
2023-03-29T02:24:56.633Z,99941.38
2023-03-29T02:27:24.425Z,99950.63
2023-03-29T02:29:53.967Z,99945.94
2023-03-29T02:32:26.370Z,99951.34
2023-03-29T02:34:58.934Z,99950.81
2023-03-29T02:37:31.264Z,99938.13
2023-03-29T02:40:00.084Z,99930.53
2023-03-29T02:42:29.554Z,99946.44
2023-03-29T02:45:01.170Z,99943.78
2023-03-29T02:47:33.421Z,99943.25
2023-03-29T02:50:01.595Z,99946.44
2023-03-29T02:52:35.004Z,99940.09
2023-03-29T02:55:06.257Z,99942.59
2023-03-29T02:57:35.584Z,99948.06
2023-03-29T03:00:06.890Z,99950.53
2023-03-29T03:02:35.504Z,99940.94
2023-03-29T03:05:03.678Z,99926.56
2023-03-29T03:07:31.444Z,99935.09
2023-03-29T03:09:59.243Z,99935.97
2023-03-29T03:12:27.174Z,99938.69
2023-03-29T03:14:54.878Z,99941.13
2023-03-29T03:17:24.570Z,99949.03
2023-03-29T03:19:53.161Z,99930.47
2023-03-29T03:22:20.921Z,99938.63
2023-03-29T03:24:49.280Z,99930.47
2023-03-29T03:27:18.005Z,99935.69
2023-03-29T03:29:45.657Z,99935.88
2023-03-29T03:32:13.478Z,99932.41
2023-03-29T03:34:42.430Z,99925.28
2023-03-29T03:37:11.916Z,99928.47
2023-03-29T03:39:39.608Z,99920.22
2023-03-29T03:42:08.436Z,99926.53
2023-03-29T03:44:36.567Z,99922.47
2023-03-29T03:47:05.670Z,99919.25
2023-03-29T03:49:33.535Z,99920.56
2023-03-29T03:52:02.693Z,99917.84
2023-03-29T03:54:30.344Z,99911.59
2023-03-29T03:56:58.277Z,99910.94
2023-03-29T03:59:26.566Z,99908.97
2023-03-29T04:01:54.609Z,99903.75
2023-03-29T04:04:23.574Z,99911.25
2023-03-29T04:06:51.671Z,99914.66
2023-03-29T04:09:22.562Z,99919.34
2023-03-29T04:11:52.987Z,99919.72
2023-03-29T04:14:21.628Z,99926.78
2023-03-29T04:16:49.268Z,99921.75
2023-03-29T04:19:17.265Z,99921.06
2023-03-29T04:21:46.044Z,99925.34
2023-03-29T04:24:13.856Z,99919.88
2023-03-29T04:26:43.030Z,99914.66
2023-03-29T04:29:10.952Z,99915.72
2023-03-29T04:31:39.067Z,99915.25
2023-03-29T04:34:07.063Z,99912.53
2023-03-29T04:36:34.808Z,99917.06
2023-03-29T04:39:04.792Z,99923.97
2023-03-29T04:41:32.645Z,99929.22
2023-03-29T04:44:02.546Z,99923.97
2023-03-29T04:46:30.878Z,99916.00
2023-03-29T04:48:58.762Z,99920.38
2023-03-29T04:51:27.512Z,99919.56
2023-03-29T04:53:55.192Z,99923.00
2023-03-29T04:56:23.074Z,99916.59
2023-03-29T04:58:51.049Z,99920.88
2023-03-29T05:01:19.995Z,99922.44
2023-03-29T05:03:47.663Z,99925.75
2023-03-29T05:06:15.339Z,99919.94
2023-03-29T05:08:43.366Z,99919.94
2023-03-29T05:11:13.547Z,99926.09
2023-03-29T05:13:41.733Z,99926.09
2023-03-29T05:16:11.108Z,99914.22
2023-03-29T05:18:40.329Z,99923.97
2023-03-29T05:21:09.394Z,99921.25
2023-03-29T05:23:37.443Z,99921.13
2023-03-29T05:26:07.975Z,99921.47
2023-03-29T05:28:35.659Z,99926.13
2023-03-29T05:31:06.023Z,99929.78
2023-03-29T05:33:34.584Z,99928.25
2023-03-29T05:36:05.340Z,99919.94
2023-03-29T05:38:33.822Z,99916.50
2023-03-29T05:41:01.925Z,99922.53
2023-03-29T05:43:29.945Z,99910.06
2023-03-29T05:45:57.701Z,99919.00
2023-03-29T05:48:26.936Z,99917.78
2023-03-29T05:50:56.224Z,99917.09
2023-03-29T05:53:27.118Z,99918.00
2023-03-29T05:55:55.242Z,99913.34
2023-03-29T05:58:23.418Z,99913.97
2023-03-29T06:00:51.427Z,99928.72
2023-03-29T06:03:23.671Z,99922.19
2023-03-29T06:05:57.996Z,99927.03
2023-03-29T06:08:27.586Z,99924.75
2023-03-29T06:11:03.050Z,99927.25
2023-03-29T06:13:33.541Z,99923.56
2023-03-29T06:16:01.769Z,99926.91
2023-03-29T06:18:30.009Z,99928.44
2023-03-29T06:20:57.660Z,99926.00
2023-03-29T06:23:27.015Z,99921.94
2023-03-29T06:25:55.236Z,99924.19
2023-03-29T06:28:24.032Z,99930.56
2023-03-29T06:30:54.021Z,99924.59
2023-03-29T06:33:21.670Z,99932.06
2023-03-29T06:35:50.623Z,99932.16
2023-03-29T06:38:19.522Z,99935.44
2023-03-29T06:40:48.529Z,99940.53
2023-03-29T06:43:16.289Z,99942.31
2023-03-29T06:45:44.662Z,99943.03
2023-03-29T06:48:13.166Z,99940.44
2023-03-29T06:50:40.864Z,99935.84
2023-03-29T06:53:08.661Z,99933.81
2023-03-29T06:55:36.334Z,99930.84
2023-03-29T06:58:05.417Z,99939.41
2023-03-29T07:00:35.864Z,99944.03
2023-03-29T07:03:08.178Z,99938.28
2023-03-29T07:05:40.598Z,99939.84
2023-03-29T07:08:14.055Z,99923.97
2023-03-29T07:10:44.422Z,99923.75
2023-03-29T07:13:14.016Z,99934.19
2023-03-29T07:15:42.676Z,99930.59
2023-03-29T07:18:11.094Z,99931.19
2023-03-29T07:20:40.446Z,99931.34
2023-03-29T07:23:09.456Z,99934.00
2023-03-29T07:25:38.232Z,99938.16
2023-03-29T07:28:06.704Z,99932.75
2023-03-29T07:30:36.983Z,99945.09
2023-03-29T07:33:04.865Z,99940.06
2023-03-29T07:35:32.854Z,99936.16
2023-03-29T07:38:00.671Z,99931.13
2023-03-29T07:40:28.318Z,99931.88
2023-03-29T07:42:57.462Z,99939.59
2023-03-29T07:45:28.747Z,99935.59
2023-03-29T07:47:59.038Z,99937.84
2023-03-29T07:50:27.504Z,99931.16
2023-03-29T07:52:56.764Z,99928.38
2023-03-29T07:55:24.543Z,99935.47
2023-03-29T07:57:52.126Z,99930.41
2023-03-29T08:00:21.054Z,99928.91
2023-03-29T08:02:50.756Z,99941.00
2023-03-29T08:05:37.957Z,99925.84
2023-03-29T08:08:09.490Z,99932.91
2023-03-29T08:10:39.308Z,99927.03
2023-03-29T08:13:09.350Z,99932.53
2023-03-29T08:15:39.008Z,99934.69
2023-03-29T08:18:06.884Z,99923.66
2023-03-29T08:20:38.540Z,99927.69
2023-03-29T08:23:06.670Z,99917.75
2023-03-29T08:25:35.107Z,99918.75
2023-03-29T08:28:02.715Z,99917.88
2023-03-29T08:30:30.443Z,99918.25
2023-03-29T08:32:58.072Z,99913.03
2023-03-29T08:35:25.746Z,99912.97
2023-03-29T08:37:54.746Z,99913.16
2023-03-29T08:40:26.305Z,99914.81
2023-03-29T08:43:06.331Z,99911.22
2023-03-29T08:45:45.364Z,99919.09
2023-03-29T08:48:23.022Z,99907.63
2023-03-29T08:50:53.896Z,99905.63
2023-03-29T08:53:27.954Z,99911.22
2023-03-29T08:55:58.455Z,99903.88
2023-03-29T08:58:30.899Z,99905.19
2023-03-29T09:01:00.794Z,99899.34
2023-03-29T09:03:34.270Z,99899.34
2023-03-29T09:06:06.018Z,99908.91
2023-03-29T09:08:40.205Z,99909.31
2023-03-29T09:11:28.951Z,99902.34
2023-03-29T09:14:13.823Z,99891.78
2023-03-29T09:16:52.576Z,99895.34
2023-03-29T09:19:27.744Z,99886.75
2023-03-29T09:22:05.223Z,99893.06
2023-03-29T09:24:48.287Z,99896.19
2023-03-29T09:27:19.587Z,99903.84
2023-03-29T09:30:10.686Z,99896.91
2023-03-29T09:32:45.691Z,99904.34
2023-03-29T09:35:19.092Z,99904.19
2023-03-29T09:37:49.975Z,99905.06
2023-03-29T09:40:23.697Z,99901.19
2023-03-29T09:42:55.400Z,99899.19
2023-03-29T09:45:23.856Z,99901.31
2023-03-29T09:47:56.243Z,99894.06
2023-03-29T09:50:31.934Z,99895.56
2023-03-29T09:53:00.058Z,99907.38
2023-03-29T09:55:32.254Z,99892.03
2023-03-29T09:58:03.039Z,99882.94
2023-03-29T10:00:30.963Z,99885.69
2023-03-29T10:03:00.273Z,99877.59
2023-03-29T10:05:33.236Z,99882.84
2023-03-29T10:08:02.244Z,99876.03
2023-03-29T10:10:34.519Z,99867.41
2023-03-29T10:13:06.825Z,99858.72
2023-03-29T10:15:34.586Z,99855.69
2023-03-29T10:18:06.742Z,99854.88
2023-03-29T10:20:36.760Z,99853.81
2023-03-29T10:23:10.341Z,99850.94
2023-03-29T10:25:42.824Z,99845.59
2023-03-29T10:28:16.153Z,99838.25
2023-03-29T10:30:46.324Z,99832.50
2023-03-29T10:33:18.703Z,99846.50
2023-03-29T10:35:48.689Z,99837.84
2023-03-29T10:38:19.532Z,99832.50
2023-03-29T10:40:51.846Z,99820.97
2023-03-29T10:43:24.559Z,99825.31
2023-03-29T10:45:54.680Z,99811.53
2023-03-29T10:48:26.380Z,99816.88
2023-03-29T10:50:54.070Z,99813.19
2023-03-29T10:53:26.139Z,99797.97
2023-03-29T10:56:07.760Z,99799.19
2023-03-29T10:58:56.669Z,99808.44
2023-03-29T11:01:35.790Z,99800.84
2023-03-29T11:04:14.693Z,99810.59
2023-03-29T11:06:48.633Z,99794.31
2023-03-29T11:09:26.682Z,99807.00
2023-03-29T11:12:15.046Z,99803.91
2023-03-29T11:14:53.853Z,99789.25
2023-03-29T11:17:36.494Z,99793.19
2023-03-29T11:20:17.460Z,99791.44
2023-03-29T11:22:53.322Z,99803.88
2023-03-29T11:25:33.406Z,99803.53
2023-03-29T11:28:09.924Z,99789.94
2023-03-29T11:30:44.593Z,99796.13
2023-03-29T11:33:26.996Z,99805.06
2023-03-29T11:36:01.026Z,99783.34
2023-03-29T11:38:37.103Z,99792.81
2023-03-29T11:41:12.883Z,99791.97
2023-03-29T11:43:45.669Z,99793.03
2023-03-29T11:46:17.878Z,99787.50
2023-03-29T11:48:51.785Z,99782.91
2023-03-29T11:51:24.759Z,99787.69
2023-03-29T11:53:59.877Z,99781.41
2023-03-29T11:56:33.478Z,99779.28
2023-03-29T11:59:11.535Z,99773.09
2023-03-29T12:01:46.391Z,99769.44
2023-03-29T12:04:22.835Z,99768.69
2023-03-29T12:06:58.424Z,99766.22
2023-03-29T12:09:34.142Z,99759.94
2023-03-29T12:12:09.940Z,99763.06
2023-03-29T12:14:56.987Z,99765.53
2023-03-29T12:17:31.721Z,99757.13
2023-03-29T12:20:11.989Z,99756.50
2023-03-29T12:22:40.064Z,99754.53
2023-03-29T12:25:17.822Z,99747.50
2023-03-29T12:27:59.189Z,99753.72
2023-03-29T12:31:03.775Z,99737.69
2023-03-29T12:33:56.654Z,99739.88
2023-03-29T12:37:01.934Z,99746.09
2023-03-29T12:39:31.303Z,99748.34
2023-03-29T12:42:08.439Z,99755.31
2023-03-29T12:44:37.012Z,99752.91
2023-03-29T12:47:06.258Z,99741.94
2023-03-29T12:49:36.988Z,99736.44
2023-03-29T12:52:09.381Z,99732.06
2023-03-29T12:54:37.133Z,99737.97
2023-03-29T12:57:21.866Z,99734.88
2023-03-29T12:59:52.236Z,99729.16
2023-03-29T13:02:37.443Z,99727.47
2023-03-29T13:05:26.425Z,99734.56
2023-03-29T13:07:55.977Z,99723.88
2023-03-29T13:10:39.087Z,99727.16
2023-03-29T13:13:18.775Z,99731.38
2023-03-29T13:15:46.941Z,99730.00
2023-03-29T13:18:36.728Z,99737.31
2023-03-29T13:21:17.608Z,99738.56
2023-03-29T13:23:57.702Z,99732.72
2023-03-29T13:26:41.243Z,99724.88
2023-03-29T13:29:38.084Z,99711.50
2023-03-29T13:32:19.951Z,99709.81
2023-03-29T13:34:57.543Z,99707.25
2023-03-29T13:37:36.675Z,99712.09
2023-03-29T13:40:19.685Z,99704.31
2023-03-29T13:42:58.907Z,99693.22
2023-03-29T13:45:28.725Z,99702.56
2023-03-29T13:48:05.843Z,99700.06
2023-03-29T13:50:38.299Z,99694.53
2023-03-29T13:53:13.686Z,99702.19
2023-03-29T13:55:48.480Z,99699.19
2023-03-29T13:58:27.355Z,99691.31
2023-03-29T14:01:01.583Z,99692.41
2023-03-29T14:03:33.557Z,99676.47
2023-03-29T14:06:04.873Z,99674.69
2023-03-29T14:08:37.560Z,99670.50
2023-03-29T14:11:09.270Z,99658.06
2023-03-29T14:13:36.981Z,99665.66
2023-03-29T14:16:09.093Z,99670.44
2023-03-29T14:18:40.334Z,99672.56
2023-03-29T14:21:12.420Z,99665.53
2023-03-29T14:23:42.038Z,99664.09
2023-03-29T14:26:15.439Z,99662.81
2023-03-29T14:28:47.224Z,99659.31
2023-03-29T14:31:20.111Z,99662.66
2023-03-29T14:33:53.509Z,99660.34
2023-03-29T14:36:23.242Z,99661.97
2023-03-29T14:38:54.349Z,99661.47
2023-03-29T14:41:24.318Z,99656.88
2023-03-29T14:43:52.314Z,99643.69
2023-03-29T14:46:22.495Z,99640.63
2023-03-29T14:48:50.676Z,99646.59
2023-03-29T14:51:19.096Z,99646.78
2023-03-29T14:53:49.432Z,99633.66
2023-03-29T14:56:24.025Z,99637.00
2023-03-29T14:58:55.304Z,99637.72
2023-03-29T15:01:25.739Z,99633.25
2023-03-29T15:03:56.217Z,99635.31
2023-03-29T15:06:25.691Z,99632.78
2023-03-29T15:09:04.377Z,99627.22
2023-03-29T15:11:34.550Z,99621.16
2023-03-29T15:14:04.830Z,99629.19
2023-03-29T15:16:33.583Z,99634.25
2023-03-29T15:19:02.860Z,99634.75
2023-03-29T15:21:33.651Z,99646.31
2023-03-29T15:24:05.068Z,99631.38
2023-03-29T15:26:36.613Z,99637.66
2023-03-29T15:29:08.553Z,99629.78
2023-03-29T15:31:38.475Z,99636.41
2023-03-29T15:34:09.465Z,99632.78
2023-03-29T15:36:42.283Z,99630.50
2023-03-29T15:39:14.217Z,99620.44
2023-03-29T15:41:42.254Z,99632.59
2023-03-29T15:44:10.740Z,99630.84
2023-03-29T15:46:38.656Z,99621.44
2023-03-29T15:49:06.381Z,99610.41
2023-03-29T15:51:33.971Z,99619.97
2023-03-29T15:54:01.649Z,99612.81
2023-03-29T15:56:31.961Z,99612.81
2023-03-29T15:58:59.597Z,99605.91
2023-03-29T16:01:34.777Z,99608.16
2023-03-29T16:04:03.268Z,99606.31
2023-03-29T16:06:31.419Z,99602.75
2023-03-29T16:08:59.060Z,99605.81
2023-03-29T16:11:27.047Z,99603.09
2023-03-29T16:13:56.649Z,99605.81
2023-03-29T16:16:24.389Z,99600.81
2023-03-29T16:18:52.411Z,99592.31
2023-03-29T16:21:22.766Z,99582.94
2023-03-29T16:23:51.398Z,99579.28
2023-03-29T16:26:19.347Z,99580.66
2023-03-29T16:28:47.051Z,99571.13
2023-03-29T16:31:16.395Z,99574.75
2023-03-29T16:33:44.489Z,99573.06
2023-03-29T16:36:12.495Z,99566.97
2023-03-29T16:38:40.610Z,99563.97
2023-03-29T16:41:08.583Z,99566.19
2023-03-29T16:43:38.694Z,99561.81
2023-03-29T16:46:08.983Z,99557.28
2023-03-29T16:48:38.557Z,99557.56
2023-03-29T16:51:07.341Z,99560.19
2023-03-29T16:53:35.664Z,99547.81
2023-03-29T16:56:03.784Z,99555.81
2023-03-29T16:58:31.796Z,99560.72
2023-03-29T17:00:59.489Z,99564.22
2023-03-29T17:03:27.663Z,99559.44
2023-03-29T17:05:58.023Z,99554.28
2023-03-29T17:08:25.908Z,99553.09
2023-03-29T17:10:55.522Z,99549.84
2023-03-29T17:13:24.146Z,99553.44
2023-03-29T17:15:52.365Z,99540.88
2023-03-29T17:18:20.331Z,99543.28
2023-03-29T17:20:48.277Z,99542.41
2023-03-29T17:23:17.536Z,99541.38
2023-03-29T17:25:45.213Z,99536.50
2023-03-29T17:28:12.856Z,99527.03
2023-03-29T17:30:41.252Z,99533.63
2023-03-29T17:33:09.161Z,99531.38
2023-03-29T17:35:36.937Z,99523.97
2023-03-29T17:38:04.621Z,99519.72
2023-03-29T17:40:33.573Z,99520.72
2023-03-29T17:43:01.348Z,99516.03
2023-03-29T17:45:29.225Z,99511.91
2023-03-29T17:47:57.114Z,99512.09
2023-03-29T17:50:26.294Z,99510.44
2023-03-29T17:52:53.950Z,99512.28
2023-03-29T17:55:21.721Z,99514.19
2023-03-29T17:57:51.630Z,99517.66
2023-03-29T18:00:20.029Z,99523.59
2023-03-29T18:02:47.898Z,99528.13
2023-03-29T18:05:15.769Z,99526.28
2023-03-29T18:07:43.541Z,99524.00
2023-03-29T18:10:11.889Z,99517.25
2023-03-29T18:12:39.716Z,99516.59
2023-03-29T18:15:10.090Z,99520.28
2023-03-29T18:17:37.883Z,99524.19
2023-03-29T18:20:11.731Z,99518.88
2023-03-29T18:22:41.376Z,99525.63
2023-03-29T18:25:10.128Z,99525.13
2023-03-29T18:27:38.602Z,99523.34
2023-03-29T18:30:08.689Z,99524.31
2023-03-29T18:32:38.071Z,99523.56
2023-03-29T18:35:06.750Z,99526.84
2023-03-29T18:37:34.501Z,99528.56
2023-03-29T18:40:02.170Z,99528.28
2023-03-29T18:42:29.859Z,99536.19
2023-03-29T18:44:57.730Z,99530.91
2023-03-29T18:47:25.734Z,99535.56
2023-03-29T18:49:54.893Z,99531.25
2023-03-29T18:52:23.401Z,99527.25
2023-03-29T18:54:51.443Z,99527.94
2023-03-29T18:57:19.297Z,99517.13
2023-03-29T18:59:47.112Z,99515.72
2023-03-29T19:02:15.581Z,99519.41
2023-03-29T19:04:43.450Z,99521.19
2023-03-29T19:07:12.780Z,99519.72
2023-03-29T19:09:41.594Z,99510.69
2023-03-29T19:12:09.533Z,99516.66
2023-03-29T19:14:37.403Z,99504.19
2023-03-29T19:17:05.362Z,99495.50
2023-03-29T19:19:33.245Z,99500.97
2023-03-29T19:22:01.308Z,99511.28
2023-03-29T19:24:30.724Z,99509.09
2023-03-29T19:26:58.477Z,99511.47
2023-03-29T19:29:26.765Z,99509.25
2023-03-29T19:31:54.658Z,99504.72
2023-03-29T19:34:23.922Z,99490.13
2023-03-29T19:36:53.567Z,99489.63
2023-03-29T19:39:22.100Z,99488.19
2023-03-29T19:41:51.296Z,99482.91
2023-03-29T19:44:20.061Z,99482.25
2023-03-29T19:46:47.837Z,99481.44
2023-03-29T19:49:15.713Z,99473.53
2023-03-29T19:51:44.293Z,99474.63
2023-03-29T19:54:13.887Z,99465.81
2023-03-29T19:56:42.931Z,99464.16
2023-03-29T19:59:14.677Z,99468.53
2023-03-29T20:01:44.035Z,99459.78
2023-03-29T20:04:12.020Z,99449.44
2023-03-29T20:06:39.798Z,99442.06
2023-03-29T20:09:07.594Z,99434.25
2023-03-29T20:11:35.598Z,99427.97
2023-03-29T20:14:03.309Z,99437.78
2023-03-29T20:16:34.311Z,99430.00
2023-03-29T20:19:02.596Z,99434.66
2023-03-29T20:21:30.220Z,99422.19
2023-03-29T20:23:57.958Z,99421.91
2023-03-29T20:26:25.790Z,99417.06
2023-03-29T20:28:53.451Z,99416.91
2023-03-29T20:31:21.173Z,99414.63
2023-03-29T20:33:50.286Z,99399.06
2023-03-29T20:36:18.468Z,99394.06
2023-03-29T20:38:46.415Z,99390.38
2023-03-29T20:41:14.044Z,99396.53
2023-03-29T20:43:41.698Z,99396.59
2023-03-29T20:46:14.887Z,99394.06
2023-03-29T20:48:45.942Z,99388.41
2023-03-29T20:51:15.075Z,99381.25
2023-03-29T20:53:43.725Z,99372.00
2023-03-29T20:56:13.195Z,99376.84
2023-03-29T20:58:41.935Z,99376.88
2023-03-29T21:01:10.210Z,99366.25
2023-03-29T21:03:38.360Z,99368.38
2023-03-29T21:06:06.336Z,99362.19
2023-03-29T21:08:35.405Z,99362.31
2023-03-29T21:11:03.953Z,99363.78
2023-03-29T21:13:35.754Z,99356.56
2023-03-29T21:16:05.021Z,99336.38
2023-03-29T21:18:32.750Z,99345.41
2023-03-29T21:21:00.601Z,99335.09
2023-03-29T21:23:28.241Z,99328.00
2023-03-29T21:25:57.210Z,99325.91
2023-03-29T21:28:25.054Z,99338.13
2023-03-29T21:30:52.848Z,99327.25
2023-03-29T21:33:21.028Z,99322.78
2023-03-29T21:35:48.714Z,99329.22
2023-03-29T21:38:16.572Z,99330.16
2023-03-29T21:40:44.325Z,99332.84
2023-03-29T21:43:13.320Z,99318.34
2023-03-29T21:45:41.238Z,99330.28
2023-03-29T21:48:08.979Z,99329.53
2023-03-29T21:50:37.211Z,99320.50
2023-03-29T21:53:06.756Z,99317.88
2023-03-29T21:55:36.081Z,99317.50
2023-03-29T21:58:04.094Z,99318.56
2023-03-29T22:00:33.748Z,99316.13
2023-03-29T22:03:01.774Z,99317.50
2023-03-29T22:05:29.601Z,99306.69
2023-03-29T22:07:58.633Z,99318.56
2023-03-29T22:10:27.337Z,99313.34
2023-03-29T22:12:55.144Z,99322.13
2023-03-29T22:15:22.782Z,99313.13
2023-03-29T22:17:53.429Z,99315.03
2023-03-29T22:20:21.275Z,99313.75
2023-03-29T22:22:50.843Z,99308.34
2023-03-29T22:25:19.515Z,99314.31
2023-03-29T22:27:48.687Z,99299.72
2023-03-29T22:30:18.033Z,99302.00
2023-03-29T22:32:45.941Z,99296.66
2023-03-29T22:35:15.081Z,99308.19
2023-03-29T22:37:43.940Z,99313.75
2023-03-29T22:40:13.395Z,99299.63
2023-03-29T22:42:41.224Z,99307.78
2023-03-29T22:45:09.953Z,99303.91
2023-03-29T22:47:37.636Z,99310.28
2023-03-29T22:50:06.192Z,99296.97
2023-03-29T22:52:35.311Z,99301.44
2023-03-29T22:55:03.053Z,99297.50
2023-03-29T22:57:30.966Z,99303.75
2023-03-29T22:59:58.627Z,99298.16
2023-03-29T23:02:26.433Z,99298.16
2023-03-29T23:04:54.209Z,99291.56
2023-03-29T23:07:21.893Z,99296.25
2023-03-29T23:09:51.047Z,99301.16
2023-03-29T23:12:18.641Z,99302.19
2023-03-29T23:14:46.994Z,99299.38
2023-03-29T23:17:19.177Z,99299.44
2023-03-29T23:19:47.200Z,99273.38
2023-03-29T23:22:15.331Z,99264.59
2023-03-29T23:24:43.462Z,99271.84
2023-03-29T23:27:12.604Z,99260.25
2023-03-29T23:29:40.365Z,99224.59
2023-03-29T23:32:08.204Z,99201.66
2023-03-29T23:34:35.792Z,99197.31
2023-03-29T23:37:03.378Z,99204.22
2023-03-29T23:39:31.025Z,99210.31
2023-03-29T23:41:58.668Z,99209.41
2023-03-29T23:44:27.703Z,99203.22
2023-03-29T23:46:55.424Z,99189.22
2023-03-29T23:49:24.039Z,99205.59
2023-03-29T23:51:51.789Z,99196.16
2023-03-29T23:54:19.411Z,99200.97
2023-03-29T23:56:47.093Z,99195.56
2023-03-29T23:59:14.705Z,99205.44
